Time;durP1;ratioP1;P1;durP2;ratioP2;P2;SDS_P1;SDS_P2;PMS_P1;PMS_P2;Temp;Humidity;BMP_temperature;BMP_pressure;BME280_temperature;BME280_humidity;BME280_pressure;Samples;Min_cycle;Max_cycle;Signal;HPM_P1;HPM_P2
2021/10/05 00:02:14;;;;;;;16.60;13.00;;;;;;;12.79;78.10;100869.86;232115;1195;139233;-71
2021/10/05 00:07:16;;;;;;;20.20;14.00;;;;;;;12.70;78.35;100867.61;234109;1195;139019;-75
2021/10/05 00:12:18;;;;;;;15.30;13.50;;;;;;;12.70;78.37;100856.15;231544;1196;138930;-74
2021/10/05 00:17:19;;;;;;;16.30;12.60;;;;;;;12.63;78.11;100858.75;229785;1196;142559;-74
2021/10/05 00:22:21;;;;;;;18.50;13.80;;;;;;;12.44;78.81;100860.52;229016;1196;139005;-72
2021/10/05 00:27:23;;;;;;;16.50;13.40;;;;;;;12.45;78.81;100857.76;228983;1196;139912;-73
2021/10/05 00:32:25;;;;;;;15.50;12.70;;;;;;;12.47;78.53;100861.45;229444;1196;138954;-73
2021/10/05 00:37:27;;;;;;;17.70;13.80;;;;;;;12.47;78.46;100862.26;229708;1202;139305;-74
2021/10/05 00:42:28;;;;;;;14.90;12.90;;;;;;;12.52;78.21;100859.54;229231;1196;138910;-73
2021/10/05 00:47:30;;;;;;;15.50;13.80;;;;;;;12.43;78.45;100857.20;228956;1196;139215;-72
2021/10/05 00:52:32;;;;;;;20.80;13.40;;;;;;;12.43;78.27;100853.64;229449;1195;138861;-73
2021/10/05 00:57:34;;;;;;;20.50;12.60;;;;;;;12.36;78.32;100857.75;229782;1197;139438;-71
2021/10/05 01:02:37;;;;;;;16.70;12.40;;;;;;;12.38;78.30;100855.81;229673;1195;139324;-73
2021/10/05 01:07:39;;;;;;;18.60;13.30;;;;;;;12.36;78.15;100854.44;229468;1191;138647;-74
2021/10/05 01:12:41;;;;;;;15.30;12.20;;;;;;;12.26;78.44;100847.30;229214;1196;138992;-74
2021/10/05 01:17:43;;;;;;;17.00;13.10;;;;;;;12.16;78.97;100846.91;229076;1200;139576;-73
2021/10/05 01:22:44;;;;;;;17.50;12.80;;;;;;;12.08;79.24;100856.20;229488;1196;139254;-73
2021/10/05 01:27:55;;;;;;;16.20;13.00;;;;;;;12.07;79.23;100849.52;229103;1196;140829;-73
2021/10/05 01:32:56;;;;;;;17.40;13.10;;;;;;;12.07;79.11;100842.16;229593;1195;140110;-74
2021/10/05 01:37:58;;;;;;;15.80;13.70;;;;;;;12.08;78.97;100836.04;229589;1195;138565;-74
2021/10/05 01:43:00;;;;;;;14.70;12.60;;;;;;;12.05;79.20;100838.13;229355;1182;138948;-73
2021/10/05 01:48:01;;;;;;;14.00;12.50;;;;;;;11.96;79.55;100838.05;229191;1196;139414;-74
2021/10/05 01:53:04;;;;;;;16.30;13.30;;;;;;;11.89;79.75;100835.23;229685;1196;139513;-74
2021/10/05 01:58:06;;;;;;;16.80;14.00;;;;;;;11.91;79.58;100840.25;229564;1196;139701;-74
2021/10/05 02:03:08;;;;;;;15.50;13.00;;;;;;;11.93;79.54;100835.87;229674;1195;139416;-73
2021/10/05 02:08:10;;;;;;;16.20;13.80;;;;;;;11.86;79.69;100830.06;229702;1196;139360;-74
2021/10/05 02:13:12;;;;;;;19.30;13.90;;;;;;;11.76;79.90;100835.96;229292;1196;141975;-74
2021/10/05 02:18:13;;;;;;;17.50;14.00;;;;;;;11.72;79.88;100836.32;228920;1203;140325;-74
2021/10/05 02:23:15;;;;;;;15.50;13.70;;;;;;;11.69;80.05;100834.11;228951;1196;141687;-74
2021/10/05 02:28:17;;;;;;;16.80;13.70;;;;;;;11.67;80.02;100836.08;229669;1195;138909;-73
2021/10/05 02:33:18;;;;;;;16.40;13.40;;;;;;;11.64;80.14;100834.08;229603;1197;139315;-73
2021/10/05 02:38:20;;;;;;;15.30;13.50;;;;;;;11.55;80.40;100836.97;229104;1196;138602;-74
2021/10/05 02:43:21;;;;;;;18.20;14.00;;;;;;;11.45;80.66;100830.94;229195;1195;138701;-69
2021/10/05 02:48:23;;;;;;;18.80;13.60;;;;;;;11.41;80.77;100833.20;229044;1196;139342;-72
2021/10/05 02:53:25;;;;;;;15.00;13.40;;;;;;;11.30;81.31;100832.96;229291;1196;139940;-71
2021/10/05 02:58:27;;;;;;;18.60;13.40;;;;;;;11.30;81.17;100832.45;229585;1196;138641;-74
2021/10/05 03:03:28;;;;;;;14.80;13.00;;;;;;;11.31;81.12;100830.05;229346;1196;139139;-75
2021/10/05 03:08:30;;;;;;;19.90;14.00;;;;;;;11.29;81.18;100822.86;228986;1200;138871;-74
2021/10/05 03:13:35;;;;;;;15.90;13.80;;;;;;;11.23;81.35;100823.92;229253;1196;143268;-70
2021/10/05 03:18:41;;;;;;;21.80;14.80;;;;;;;11.26;81.11;100825.11;229420;1196;140256;-71
2021/10/05 03:23:42;;;;;;;;;;;;;;;11.22;81.24;100822.63;229670;1196;139425;-73
2021/10/05 03:28:44;;;;;;;16.20;13.50;;;;;;;11.25;81.04;100827.29;229611;1196;125683;-75
2021/10/05 03:33:46;;;;;;;18.90;14.40;;;;;;;11.22;81.19;100824.96;229186;1197;139036;-74
2021/10/05 03:38:48;;;;;;;15.60;13.50;;;;;;;11.17;81.08;100818.36;228962;1196;139475;-75
2021/10/05 03:43:50;;;;;;;18.30;14.90;;;;;;;11.14;81.35;100815.64;229048;1196;138763;-75
2021/10/05 03:48:52;;;;;;;18.80;14.50;;;;;;;11.20;80.98;100809.27;229413;1202;138539;-74
2021/10/05 03:53:53;;;;;;;18.70;15.00;;;;;;;11.05;81.45;100808.52;229154;1196;138877;-75
2021/10/05 03:58:55;;;;;;;17.60;13.30;;;;;;;11.05;81.28;100808.71;229067;1197;140113;-74
2021/10/05 04:03:57;;;;;;;20.00;15.00;;;;;;;10.95;81.55;100805.98;228846;1197;139124;-73
2021/10/05 04:08:58;;;;;;;20.90;14.70;;;;;;;10.99;81.24;100804.32;229460;1196;139384;-74
2021/10/05 04:14:00;;;;;;;17.80;14.20;;;;;;;10.99;81.09;100807.48;229432;1195;139024;-73
2021/10/05 04:19:03;;;;;;;19.30;14.80;;;;;;;10.89;81.56;100808.15;228834;1196;139007;-74
2021/10/05 04:24:05;;;;;;;14.70;13.20;;;;;;;10.89;81.42;100805.67;229046;1197;138634;-73
2021/10/05 04:29:07;;;;;;;15.20;13.60;;;;;;;10.82;81.71;100805.46;229315;1196;139342;-73
2021/10/05 04:34:09;;;;;;;17.40;13.80;;;;;;;10.79;81.61;100807.86;229274;1196;139289;-73
2021/10/05 04:39:11;;;;;;;18.10;14.20;;;;;;;10.75;81.85;100801.55;228998;1196;139110;-72
2021/10/05 04:44:12;;;;;;;17.80;14.50;;;;;;;10.80;81.78;100806.46;229005;1196;138840;-73
2021/10/05 04:49:14;;;;;;;16.40;14.40;;;;;;;10.85;81.20;100811.52;229426;1196;139131;-72
2021/10/05 04:54:16;;;;;;;16.80;13.60;;;;;;;10.79;81.56;100807.34;229055;1196;139149;-73
2021/10/05 04:59:19;;;;;;;16.60;12.50;;;;;;;10.74;81.75;100804.64;228686;1196;138937;-73
2021/10/05 05:04:20;;;;;;;14.90;12.30;;;;;;;10.73;81.64;100801.21;228754;1203;139313;-74
2021/10/05 05:09:22;;;;;;;16.50;13.70;;;;;;;10.87;81.21;100804.48;229071;1196;139249;-73
2021/10/05 05:14:24;;;;;;;16.10;14.10;;;;;;;10.96;80.72;100800.56;229130;1196;138980;-72
2021/10/05 05:19:27;;;;;;;14.80;13.20;;;;;;;10.89;80.85;100804.27;229314;1197;138662;-73
2021/10/05 05:24:29;;;;;;;15.40;13.30;;;;;;;10.85;81.22;100801.66;229448;1196;140169;-73
2021/10/05 05:29:31;;;;;;;18.00;14.00;;;;;;;10.84;81.21;100799.42;228921;1196;151749;-75
2021/10/05 05:34:32;;;;;;;15.50;12.10;;;;;;;10.88;81.14;100807.88;228827;1196;139136;-74
2021/10/05 05:39:39;;;;;;;19.50;12.50;;;;;;;10.97;80.66;100811.25;229107;1196;139923;-74
2021/10/05 05:44:41;;;;;;;15.90;13.50;;;;;;;11.07;80.33;100811.35;230133;1196;138861;-72
2021/10/05 05:49:43;;;;;;;14.40;12.00;;;;;;;11.17;79.75;100809.39;232509;1196;138544;-73
2021/10/05 05:54:45;;;;;;;16.50;12.50;;;;;;;11.09;79.75;100815.11;230852;1196;139363;-75
2021/10/05 05:59:47;;;;;;;16.20;11.80;;;;;;;11.05;79.98;100816.02;228913;1197;139204;-74
2021/10/05 06:04:49;;;;;;;17.30;12.80;;;;;;;11.05;79.69;100813.83;228988;1189;139749;-73
2021/10/05 06:09:51;;;;;;;15.00;10.80;;;;;;;11.09;79.62;100811.54;229075;1196;140082;-75
2021/10/05 06:14:53;;;;;;;14.40;11.80;;;;;;;11.20;79.12;100809.23;229205;1196;139410;-73
2021/10/05 06:19:55;;;;;;;15.80;12.10;;;;;;;11.25;78.87;100811.08;229149;1196;138556;-74
2021/10/05 06:24:56;;;;;;;15.00;11.10;;;;;;;11.22;78.77;100802.48;229173;1196;138986;-75
2021/10/05 06:29:58;;;;;;;16.00;11.60;;;;;;;11.22;78.79;100806.02;228846;1182;139341;-73
2021/10/05 06:35:00;;;;;;;15.20;11.50;;;;;;;11.33;78.53;100795.00;228840;1197;139326;-75
2021/10/05 06:40:03;;;;;;;13.40;10.20;;;;;;;11.40;77.90;100789.84;229194;1196;138526;-74
2021/10/05 06:45:06;;;;;;;13.10;10.20;;;;;;;11.40;78.15;100779.80;229505;1196;138595;-73
2021/10/05 06:50:09;;;;;;;13.70;10.40;;;;;;;11.40;77.88;100785.25;229090;1196;138987;-73
2021/10/05 06:55:11;;;;;;;12.60;9.70;;;;;;;11.48;77.63;100791.33;228909;1196;139166;-74
2021/10/05 07:00:15;;;;;;;14.10;10.20;;;;;;;11.61;77.04;100782.48;228873;1196;139570;-73
2021/10/05 07:05:21;;;;;;;11.90;9.00;;;;;;;11.79;76.43;100775.23;229269;1196;139049;-73
2021/10/05 07:10:23;;;;;;;12.10;9.00;;;;;;;11.91;75.86;100779.63;229039;1197;138809;-72
2021/10/05 07:15:26;;;;;;;14.50;9.30;;;;;;;12.00;75.55;100779.18;229226;1196;138515;-72
2021/10/05 07:20:29;;;;;;;11.20;9.80;;;;;;;12.05;75.18;100777.30;229092;1196;139962;-70
2021/10/05 07:25:31;;;;;;;11.10;9.10;;;;;;;12.14;74.75;100777.86;229371;1197;138950;-74
2021/10/05 07:30:33;;;;;;;11.50;9.30;;;;;;;12.26;74.71;100781.17;229270;1196;138434;-74
2021/10/05 07:35:34;;;;;;;11.80;9.20;;;;;;;12.32;74.51;100785.16;229247;1196;138585;-74
2021/10/05 07:40:36;;;;;;;15.20;10.20;;;;;;;12.36;74.25;100785.15;228905;1197;139105;-75
2021/10/05 07:45:38;;;;;;;11.20;9.50;;;;;;;12.50;74.36;100782.83;228983;1199;139914;-74
2021/10/05 07:50:40;;;;;;;10.80;8.60;;;;;;;12.67;73.96;100777.73;229091;1196;139265;-74
2021/10/05 07:55:42;;;;;;;15.00;10.20;;;;;;;12.82;73.32;100774.60;229331;1196;138616;-74
2021/10/05 08:01:05;;;;;;;13.70;11.10;;;;;;;12.97;72.79;100773.78;229251;1196;138812;-78
2021/10/05 08:06:07;;;;;;;12.30;7.80;;;;;;;13.08;72.77;100777.60;229416;1196;139187;-74
2021/10/05 08:11:09;;;;;;;14.00;8.50;;;;;;;13.21;72.29;100773.05;228846;1197;139415;-75
2021/10/05 08:16:11;;;;;;;15.60;9.40;;;;;;;13.38;71.42;100762.27;229057;1198;138822;-73
2021/10/05 08:21:16;;;;;;;10.50;7.80;;;;;;;13.48;70.95;100751.95;229273;1196;138371;-73
2021/10/05 08:26:22;;;;;;;10.00;7.60;;;;;;;13.57;70.39;100758.66;229418;1196;138697;-74
2021/10/05 08:31:24;;;;;;;11.80;8.20;;;;;;;13.62;70.59;100762.19;229250;1196;138577;-74
2021/10/05 08:36:26;;;;;;;13.90;10.00;;;;;;;13.78;70.47;100755.85;229149;1196;139418;-73
2021/10/05 08:41:28;;;;;;;9.50;7.90;;;;;;;14.00;69.02;100749.39;229067;1196;139594;-73
2021/10/05 08:46:37;;;;;;;9.70;7.30;;;;;;;14.06;69.01;100754.48;228903;1196;138720;-73
2021/10/05 08:51:39;;;;;;;8.80;7.80;;;;;;;14.18;69.23;100745.53;229380;1196;139081;-72
2021/10/05 08:56:42;;;;;;;11.20;7.70;;;;;;;14.24;68.86;100742.65;229356;1200;139006;-73
2021/10/05 09:01:48;;;;;;;8.90;7.40;;;;;;;14.41;68.73;100741.48;228882;1196;139564;-74
2021/10/05 09:06:55;;;;;;;9.30;7.60;;;;;;;14.60;67.43;100743.52;228819;1198;138693;-73
2021/10/05 09:11:57;;;;;;;10.10;8.10;;;;;;;14.75;67.36;100737.38;228937;1196;138619;-77
2021/10/05 09:16:59;;;;;;;10.30;7.80;;;;;;;14.87;68.00;100728.06;229254;1202;138699;-70
2021/10/05 09:22:04;;;;;;;10.30;8.20;;;;;;;14.95;68.01;100721.54;229307;1196;138467;-74
2021/10/05 09:27:06;;;;;;;9.10;7.80;;;;;;;15.05;67.27;100719.73;229179;1196;138945;-74
2021/10/05 09:32:09;;;;;;;9.90;7.40;;;;;;;15.05;67.04;100707.77;229213;1196;138833;-70
2021/10/05 09:37:23;;;;;;;10.40;7.50;;;;;;;15.14;66.42;100704.67;229371;1200;139058;-74
2021/10/05 09:42:30;;;;;;;9.70;7.90;;;;;;;15.30;65.62;100694.82;229079;1196;138785;-74
2021/10/05 09:47:43;;;;;;;10.40;7.50;;;;;;;15.44;65.01;100691.94;229132;1196;138678;-72
2021/10/05 09:53:10;;;;;;;11.20;7.60;;;;;;;15.56;64.66;100692.73;229153;1188;139583;-73
2021/10/05 09:58:15;;;;;;;9.70;7.20;;;;;;;15.67;65.05;100695.71;229089;1196;140076;-74
2021/10/05 10:03:17;;;;;;;9.70;6.80;;;;;;;15.83;64.31;100685.63;228826;1197;139413;-72
2021/10/05 10:08:21;;;;;;;10.00;7.70;;;;;;;15.94;63.27;100678.49;228893;1196;138990;-74
2021/10/05 10:13:23;;;;;;;8.40;6.80;;;;;;;16.06;63.02;100672.27;229213;1197;138788;-73
2021/10/05 10:18:25;;;;;;;11.30;7.00;;;;;;;16.25;63.00;100674.21;229285;1197;138328;-74
2021/10/05 10:23:29;;;;;;;11.30;8.20;;;;;;;16.36;62.47;100672.36;228938;1196;139496;-73
2021/10/05 10:28:38;;;;;;;8.70;7.80;;;;;;;16.41;62.09;100663.27;228921;1200;138295;-70
2021/10/05 10:33:51;;;;;;;8.30;7.30;;;;;;;16.50;62.16;100669.30;228989;1203;138393;-74
2021/10/05 10:39:02;;;;;;;11.10;7.90;;;;;;;16.75;61.29;100675.36;229193;1196;140917;-73
2021/10/05 10:44:05;;;;;;;11.70;7.00;;;;;;;17.00;61.17;100667.83;229385;1196;138803;-73
2021/10/05 10:49:19;;;;;;;9.90;7.80;;;;;;;17.19;60.02;100666.06;229214;1196;139609;-75
2021/10/05 10:54:22;;;;;;;12.00;7.20;;;;;;;17.43;59.02;100655.77;229174;1196;138668;-75
2021/10/05 10:59:26;;;;;;;9.80;6.70;;;;;;;17.65;58.67;100647.86;228833;1196;138344;-73
2021/10/05 11:04:29;;;;;;;8.80;7.40;;;;;;;17.95;57.90;100635.94;229155;1199;138336;-74
2021/10/05 11:09:34;;;;;;;8.90;8.00;;;;;;;18.31;57.32;100635.05;229468;1200;138440;-74
2021/10/05 11:14:40;;;;;;;11.20;7.50;;;;;;;18.59;56.29;100631.93;229209;1198;138635;-75
2021/10/05 11:19:41;;;;;;;9.10;7.10;;;;;;;18.55;56.40;100621.59;228758;1196;139895;-73
2021/10/05 11:24:46;;;;;;;12.30;8.80;;;;;;;18.62;56.41;100611.00;229341;1196;138936;-75
2021/10/05 11:29:48;;;;;;;9.40;7.30;;;;;;;18.16;57.64;100599.65;229769;1196;138915;-74
2021/10/05 11:34:51;;;;;;;11.30;6.90;;;;;;;20.57;51.73;100579.40;229271;1196;138595;-75
2021/10/05 11:39:56;;;;;;;10.80;6.90;;;;;;;23.00;45.21;100573.59;228918;1197;139489;-73
2021/10/05 11:45:05;;;;;;;9.00;7.30;;;;;;;21.39;48.40;100578.83;229043;1196;138435;-74
2021/10/05 11:50:08;;;;;;;8.40;7.20;;;;;;;20.08;52.67;100583.98;229838;1197;138395;-76
2021/10/05 11:55:10;;;;;;;8.20;6.80;;;;;;;19.50;54.17;100570.65;231887;1196;138235;-74
2021/10/05 12:00:13;;;;;;;11.00;6.80;;;;;;;19.20;55.46;100571.46;231334;1196;138230;-73
2021/10/05 12:05:24;;;;;;;8.00;7.20;;;;;;;19.12;55.99;100564.20;228965;1197;138793;-74
2021/10/05 12:10:26;;;;;;;10.50;6.30;;;;;;;18.90;56.22;100563.84;229148;1197;138689;-78
2021/10/05 12:15:30;;;;;;;11.30;7.20;;;;;;;18.89;56.31;100565.45;229288;1197;142417;-74
2021/10/05 12:20:32;;;;;;;10.50;7.80;;;;;;;19.35;55.44;100559.55;229760;1199;138706;-75
2021/10/05 12:25:39;;;;;;;8.90;6.50;;;;;;;20.43;52.39;100570.77;228976;1196;138757;-74
2021/10/05 12:30:40;;;;;;;8.30;7.10;;;;;;;20.00;53.44;100564.80;229326;1196;138116;-74
2021/10/05 12:35:43;;;;;;;9.40;7.10;;;;;;;19.67;54.67;100558.97;229377;1196;138353;-73
2021/10/05 12:40:55;;;;;;;8.70;6.70;;;;;;;19.51;55.12;100562.02;229365;1197;139694;-75
2021/10/05 12:45:59;;;;;;;8.70;7.00;;;;;;;20.22;53.56;100551.24;229084;1197;138292;-75
2021/10/05 12:51:05;;;;;;;9.60;6.90;;;;;;;19.79;53.92;100549.17;229263;1199;138247;-74
2021/10/05 12:56:07;;;;;;;10.40;6.80;;;;;;;19.55;55.24;100542.77;229040;1197;138778;-76
2021/10/05 13:01:09;;;;;;;9.00;6.90;;;;;;;19.62;55.30;100547.96;228950;1197;138897;-75
2021/10/05 13:06:12;;;;;;;7.50;6.60;;;;;;;19.35;55.96;100546.11;228987;1197;141585;-74
2021/10/05 13:11:15;;;;;;;7.90;6.40;;;;;;;19.22;56.19;100541.95;229388;1195;138559;-74
2021/10/05 13:16:16;;;;;;;10.00;6.40;;;;;;;19.15;56.36;100527.02;229008;1197;138200;-75
2021/10/05 13:21:19;;;;;;;8.80;6.80;;;;;;;19.12;56.33;100523.37;229084;1198;138847;-73
2021/10/05 13:26:21;;;;;;;7.30;6.60;;;;;;;19.09;56.76;100507.52;229007;1196;138479;-73
2021/10/05 13:31:23;;;;;;;7.50;6.50;;;;;;;19.05;57.12;100509.45;228733;1197;138356;-74
2021/10/05 13:36:25;;;;;;;9.60;6.30;;;;;;;19.01;56.93;100513.91;228869;1196;138722;-73
2021/10/05 13:41:27;;;;;;;10.90;6.10;;;;;;;19.02;56.77;100514.48;229039;1197;138310;-75
2021/10/05 13:46:28;;;;;;;8.80;6.20;;;;;;;19.11;55.06;100509.38;229001;1196;138388;-74
2021/10/05 13:51:30;;;;;;;8.00;6.60;;;;;;;19.15;54.96;100501.34;229353;1196;138347;-73
2021/10/05 13:56:32;;;;;;;6.10;5.50;;;;;;;19.17;55.38;100505.88;229218;1197;138444;-76
2021/10/05 14:01:35;;;;;;;8.30;6.10;;;;;;;19.31;54.47;100503.85;229597;1197;138089;-74
2021/10/05 14:06:36;;;;;;;8.20;6.70;;;;;;;19.31;54.20;100507.73;229296;1180;138176;-75
2021/10/05 14:11:38;;;;;;;9.00;6.40;;;;;;;19.31;53.76;100504.88;228904;1197;138451;-73
2021/10/05 14:16:41;;;;;;;6.90;5.40;;;;;;;19.27;54.42;100497.91;228731;1197;138709;-74
2021/10/05 14:21:43;;;;;;;6.50;5.90;;;;;;;19.19;55.66;100502.58;229067;1197;139174;-74
2021/10/05 14:26:44;;;;;;;6.50;5.90;;;;;;;19.07;56.78;100497.95;229081;1196;138936;-74
2021/10/05 14:31:46;;;;;;;8.10;5.70;;;;;;;18.96;57.65;100496.56;229010;1196;140555;-73
2021/10/05 14:36:48;;;;;;;7.70;6.60;;;;;;;18.83;58.07;100497.38;229235;1197;138640;-73
2021/10/05 14:41:51;;;;;;;7.70;6.30;;;;;;;18.75;58.72;100499.76;228909;1197;138124;-70
2021/10/05 14:46:53;;;;;;;8.10;7.30;;;;;;;18.69;58.82;100496.27;229042;1197;138063;-74
2021/10/05 14:51:55;;;;;;;8.80;6.90;;;;;;;18.64;58.84;100497.20;228893;1196;138953;-74
2021/10/05 14:56:57;;;;;;;7.60;6.00;;;;;;;18.60;58.86;100496.58;228834;1188;138510;-73
2021/10/05 15:01:58;;;;;;;13.70;6.70;;;;;;;18.52;59.15;100502.20;229009;1197;138127;-73
2021/10/05 15:07:00;;;;;;;8.80;6.20;;;;;;;18.46;59.26;100493.08;228981;1196;138188;-74
2021/10/05 15:12:02;;;;;;;7.40;5.50;;;;;;;18.39;59.27;100506.40;228979;1196;138676;-74
2021/10/05 15:17:04;;;;;;;7.30;6.00;;;;;;;18.32;59.53;100505.92;228859;1197;138940;-74
2021/10/05 15:22:06;;;;;;;9.80;8.30;;;;;;;18.23;59.70;100507.29;228862;1196;138439;-72
2021/10/05 15:27:07;;;;;;;10.20;6.00;;;;;;;18.15;59.94;100509.52;229975;1196;138148;-77
2021/10/05 15:32:09;;;;;;;10.80;6.60;;;;;;;18.06;60.05;100511.58;230146;1196;138674;-73
2021/10/05 15:37:11;;;;;;;8.30;6.30;;;;;;;18.02;60.04;100521.98;230128;1197;138798;-74
2021/10/05 15:42:15;;;;;;;8.60;6.40;;;;;;;17.91;60.18;100515.92;229616;1196;138618;-75
2021/10/05 15:47:17;;;;;;;7.80;5.70;;;;;;;17.77;60.44;100505.19;229080;1197;138893;-73
2021/10/05 15:57:20;;;;;;;11.00;6.20;;;;;;;17.57;60.65;100487.59;230127;1196;138654;-73
2021/10/05 16:02:22;;;;;;;10.30;6.50;;;;;;;17.47;60.67;100483.02;230305;1195;139086;-74
2021/10/05 16:07:24;;;;;;;8.40;6.60;;;;;;;17.38;60.54;100477.90;230013;1196;138540;-72
2021/10/05 16:12:26;;;;;;;9.20;6.60;;;;;;;17.33;60.42;100500.48;228989;1197;138640;-75
2021/10/05 16:17:28;;;;;;;8.90;6.80;;;;;;;17.28;60.20;100510.32;229945;1196;138335;-77
2021/10/05 16:22:29;;;;;;;14.70;6.80;;;;;;;17.23;60.35;100516.89;230026;1195;138456;-75
2021/10/05 16:27:31;;;;;;;12.10;7.10;;;;;;;17.17;60.28;100524.80;229814;1200;138495;-73
2021/10/05 16:32:37;;;;;;;9.80;7.10;;;;;;;17.10;60.53;100527.82;229259;1197;138678;-75
2021/10/05 16:37:42;;;;;;;11.50;6.70;;;;;;;17.05;60.55;100538.42;229230;1197;138173;-74
2021/10/05 16:42:44;;;;;;;11.60;7.40;;;;;;;16.99;60.65;100527.80;229763;1195;138723;-75
2021/10/05 16:47:46;;;;;;;14.40;7.40;;;;;;;16.91;60.76;100525.19;230484;1196;138434;-71
2021/10/05 16:52:48;;;;;;;12.70;6.40;;;;;;;16.88;60.69;100523.59;229421;1196;138842;-73
2021/10/05 16:57:50;;;;;;;11.30;6.90;;;;;;;16.82;60.57;100535.36;229012;1196;138890;-74
2021/10/05 17:02:53;;;;;;;10.80;6.10;;;;;;;16.77;60.65;100523.52;229207;1195;138863;-74
2021/10/05 17:07:56;;;;;;;11.30;6.20;;;;;;;16.71;60.63;100529.98;229291;1197;139433;-73
2021/10/05 17:12:58;;;;;;;8.20;6.70;;;;;;;16.67;60.54;100517.67;229053;1195;139050;-72
2021/10/05 17:17:59;;;;;;;11.80;6.00;;;;;;;16.64;60.53;100523.00;228813;1200;139514;-74
2021/10/05 17:23:02;;;;;;;8.20;5.00;;;;;;;16.56;60.44;100512.28;228865;1197;138580;-75
2021/10/05 17:28:05;;;;;;;9.00;5.70;;;;;;;16.53;60.33;100514.96;229626;1197;138123;-75
2021/10/05 17:33:06;;;;;;;7.30;5.50;;;;;;;16.45;60.10;100513.44;228846;1196;138513;-74
2021/10/05 17:38:08;;;;;;;9.90;6.10;;;;;;;16.39;59.93;100517.97;228773;1196;138656;-74
2021/10/05 17:43:10;;;;;;;10.80;6.10;;;;;;;16.37;59.62;100508.17;228928;1196;139375;-75
2021/10/05 17:48:12;;;;;;;10.00;6.10;;;;;;;16.32;59.16;100502.01;228714;1197;138749;-75
2021/10/05 17:53:14;;;;;;;9.20;5.80;;;;;;;16.28;58.89;100510.66;228848;1196;138573;-75
2021/10/05 17:58:16;;;;;;;9.60;6.00;;;;;;;16.21;58.42;100505.86;228473;1196;138299;-72
2021/10/05 18:03:18;;;;;;;7.70;6.10;;;;;;;16.19;58.02;100513.52;228389;1196;138950;-74
2021/10/05 18:08:20;;;;;;;10.00;6.50;;;;;;;16.15;57.67;100513.38;228030;1198;138600;-73
2021/10/05 18:13:23;;;;;;;9.60;6.30;;;;;;;16.08;57.03;100513.24;228256;1196;139618;-72
2021/10/05 18:18:25;;;;;;;9.70;6.50;;;;;;;16.04;56.76;100516.98;228468;1197;138627;-74
2021/10/05 18:23:27;;;;;;;11.00;6.40;;;;;;;16.00;56.28;100524.92;228511;1197;138550;-74
2021/10/05 18:28:28;;;;;;;9.10;6.90;;;;;;;15.96;56.18;100535.96;228459;1196;139479;-74
2021/10/05 18:33:30;;;;;;;11.50;5.90;;;;;;;15.89;55.97;100545.60;228908;1196;139746;-75
2021/10/05 18:38:33;;;;;;;13.50;6.20;;;;;;;15.86;55.80;100548.43;228915;1200;138382;-75
2021/10/05 18:43:34;;;;;;;11.60;6.20;;;;;;;15.79;55.90;100552.50;228560;1196;139246;-73
2021/10/05 18:48:36;;;;;;;10.60;6.00;;;;;;;15.71;55.84;100545.96;228631;1196;139306;-76
2021/10/05 18:53:38;;;;;;;6.80;5.60;;;;;;;15.66;55.68;100539.08;228975;1195;139194;-74
2021/10/05 18:58:41;;;;;;;9.30;5.50;;;;;;;15.61;55.76;100541.50;228897;1196;139478;-75
2021/10/05 19:03:43;;;;;;;13.00;6.40;;;;;;;15.55;55.69;100543.23;228975;1195;139125;-74
2021/10/05 19:08:45;;;;;;;10.10;6.30;;;;;;;15.51;55.69;100532.75;228449;1196;139115;-75
2021/10/05 19:13:47;;;;;;;13.20;5.80;;;;;;;15.45;55.84;100536.02;228628;1196;151025;-74
2021/10/05 19:18:50;;;;;;;10.80;6.00;;;;;;;15.43;55.56;100543.41;229397;1196;138439;-75
2021/10/05 19:23:52;;;;;;;7.60;5.40;;;;;;;15.39;55.64;100542.95;230046;1196;138903;-76
2021/10/05 19:28:54;;;;;;;7.70;5.90;;;;;;;15.32;55.66;100546.07;229868;1195;139492;-74
2021/10/05 19:33:56;;;;;;;12.00;6.40;;;;;;;15.28;55.77;100541.41;229647;1195;139674;-76
2021/10/05 19:38:57;;;;;;;12.10;6.00;;;;;;;15.24;55.50;100534.80;230328;1196;138674;-76
2021/10/05 19:43:59;;;;;;;9.40;5.60;;;;;;;15.22;55.64;100530.82;229931;1196;139196;-77
2021/10/05 19:49:01;;;;;;;12.50;6.10;;;;;;;15.16;55.60;100535.19;229755;1196;139054;-74
2021/10/05 19:54:03;;;;;;;9.90;5.80;;;;;;;15.10;55.37;100538.58;229704;1196;138548;-76
2021/10/05 19:59:04;;;;;;;9.30;5.70;;;;;;;15.09;55.23;100531.50;230182;1196;138425;-78
2021/10/05 20:04:06;;;;;;;11.20;6.30;;;;;;;15.03;55.01;100542.66;230363;1196;139208;-76
2021/10/05 20:09:08;;;;;;;7.80;5.40;;;;;;;15.01;55.35;100542.34;229409;1196;138404;-77
2021/10/05 20:14:10;;;;;;;11.00;5.50;;;;;;;14.96;54.94;100540.42;230044;1196;138624;-77
2021/10/05 20:19:12;;;;;;;8.80;5.00;;;;;;;14.94;54.78;100547.17;229740;1197;138931;-76
2021/10/05 20:24:14;;;;;;;7.10;5.20;;;;;;;14.91;54.58;100551.83;229611;1196;138390;-69
2021/10/05 20:29:17;;;;;;;13.20;6.70;;;;;;;14.90;54.37;100551.41;228660;1196;141392;-73
2021/10/05 20:34:20;;;;;;;10.80;6.30;;;;;;;14.91;54.61;100553.36;228842;1196;138220;-72
2021/10/05 20:39:22;;;;;;;8.00;5.70;;;;;;;14.88;54.07;100547.02;228993;1196;138316;-73
2021/10/05 20:44:23;;;;;;;14.10;5.50;;;;;;;14.88;53.79;100557.14;228786;1196;138560;-75
2021/10/05 20:49:25;;;;;;;13.30;5.10;;;;;;;14.85;53.71;100549.67;228862;1196;138837;-73
2021/10/05 20:54:27;;;;;;;7.10;4.80;;;;;;;14.81;53.55;100543.20;228833;1196;138870;-74
2021/10/05 20:59:29;;;;;;;10.30;5.30;;;;;;;14.78;53.22;100544.66;229111;1197;138489;-74
2021/10/05 21:04:31;;;;;;;7.70;5.40;;;;;;;14.77;53.37;100544.02;229015;1196;138572;-71
2021/10/05 21:09:32;;;;;;;8.60;5.50;;;;;;;14.69;53.31;100548.19;228623;1196;138644;-72
2021/10/05 21:19:49;;;;;;;14.10;11.40;;;;;;;14.54;53.75;100542.77;227018;1212;635715;-73
2021/10/05 21:24:52;;;;;;;9.00;5.70;;;;;;;14.48;53.81;100541.80;228577;1199;138043;-72
2021/10/05 21:29:53;;;;;;;9.40;5.40;;;;;;;14.39;53.83;100541.11;228588;1200;136956;-74
2021/10/05 21:34:56;;;;;;;9.20;5.20;;;;;;;14.33;53.72;100540.66;228620;1199;137337;-72
2021/10/05 21:39:57;;;;;;;11.70;5.40;;;;;;;14.29;53.79;100542.35;228479;1200;137393;-76
2021/10/05 21:44:59;;;;;;;8.40;4.80;;;;;;;14.23;54.01;100534.94;228553;1206;137388;-75
2021/10/05 21:50:01;;;;;;;12.80;5.20;;;;;;;14.20;53.90;100539.91;228533;1199;137306;-73
2021/10/05 21:55:04;;;;;;;7.60;4.70;;;;;;;14.12;54.04;100546.85;228601;1199;137973;-70
2021/10/05 22:00:08;;;;;;;13.00;5.00;;;;;;;14.03;54.33;100548.95;228487;1199;137801;-72
2021/10/05 22:05:10;;;;;;;10.20;4.90;;;;;;;14.00;54.67;100546.39;228462;1200;137343;-73
2021/10/05 22:10:12;;;;;;;11.50;5.30;;;;;;;13.93;54.81;100548.90;228332;1199;137915;-71
2021/10/05 22:15:14;;;;;;;9.40;5.20;;;;;;;13.86;54.84;100548.60;228473;1199;138494;-71
2021/10/05 22:20:17;;;;;;;11.50;5.50;;;;;;;13.81;55.04;100546.67;228776;1199;137332;-72
2021/10/05 22:25:20;;;;;;;6.60;4.80;;;;;;;13.78;55.10;100544.02;228514;1199;137609;-72
2021/10/05 22:30:22;;;;;;;9.50;5.60;;;;;;;13.73;55.27;100538.90;228460;1199;137883;-73
2021/10/05 22:35:25;;;;;;;8.90;5.00;;;;;;;13.67;55.38;100550.21;228326;1199;137456;-72
2021/10/05 22:40:26;;;;;;;9.20;4.80;;;;;;;13.64;55.52;100551.07;228336;1199;137502;-72
2021/10/05 22:45:28;;;;;;;10.20;5.10;;;;;;;13.60;55.96;100551.73;228416;1199;137256;-72
2021/10/05 22:50:30;;;;;;;8.80;5.40;;;;;;;13.54;55.86;100549.53;228318;1200;137733;-72